Time;durP1;ratioP1;P1;durP2;ratioP2;P2;SDS_P1;SDS_P2;PMS_P1;PMS_P2;Temp;Humidity;BMP_temperature;BMP_pressure;BME280_temperature;BME280_humidity;BME280_pressure;Samples;Min_cycle;Max_cycle;Signal;HPM_P1;HPM_P2
2024/03/14 00:00:22;;;;;;;8.98;4.25;;;;;;;13.10;100.00;100663.69;5068236;28;20032;-66
2024/03/14 00:02:47;;;;;;;;;;;;;;;13.10;100.00;100663.69;5070880;28;20448;-66
2024/03/14 00:05:18;;;;;;;9.93;3.75;;;;;;;13.15;100.00;100666.81;5070813;28;19912;-71
2024/03/14 00:07:44;;;;;;;9.70;4.22;;;;;;;12.91;100.00;100671.94;5069406;28;20028;-66
2024/03/14 00:10:09;;;;;;;13.75;4.10;;;;;;;13.05;100.00;100666.72;5070320;28;20390;-69
2024/03/14 00:12:35;;;;;;;10.13;4.22;;;;;;;13.03;100.00;100660.88;5070670;28;20032;-66
2024/03/14 00:15:01;;;;;;;10.13;4.03;;;;;;;13.08;100.00;100661.38;5071433;28;20087;-66
2024/03/14 00:17:26;;;;;;;10.70;4.25;;;;;;;12.88;100.00;100668.06;5075040;28;20067;-70
2024/03/14 00:19:52;;;;;;;13.68;4.50;;;;;;;12.91;100.00;100658.44;5071865;28;20039;-69
2024/03/14 00:22:18;;;;;;;10.63;4.65;;;;;;;12.92;100.00;100668.09;5070922;28;20075;-69
2024/03/14 00:24:44;;;;;;;10.13;4.35;;;;;;;12.94;100.00;100660.38;5068343;28;20041;-67
2024/03/14 00:27:09;;;;;;;13.10;4.53;;;;;;;12.96;100.00;100658.09;5069695;28;20051;-66
2024/03/14 00:29:35;;;;;;;9.13;4.18;;;;;;;12.87;100.00;100661.09;5068212;28;20025;-67
2024/03/14 00:32:02;;;;;;;14.13;5.05;;;;;;;12.94;100.00;100650.38;5070248;28;20045;-66
2024/03/14 00:34:28;;;;;;;11.98;4.82;;;;;;;12.87;100.00;100652.22;5071799;28;20048;-67
2024/03/14 00:36:54;;;;;;;9.90;4.13;;;;;;;12.91;100.00;100658.44;5070253;28;20040;-66
2024/03/14 00:39:21;;;;;;;15.63;4.95;;;;;;;12.77;100.00;100655.56;5071086;28;20052;-70
2024/03/14 00:41:48;;;;;;;14.20;5.65;;;;;;;12.64;100.00;100647.69;5069370;28;20410;-70
2024/03/14 00:44:13;;;;;;;22.83;5.82;;;;;;;12.73;100.00;100649.34;5070014;28;20387;-66
2024/03/14 00:46:40;;;;;;;12.93;5.13;;;;;;;12.76;100.00;100654.78;5054732;28;20028;-67
2024/03/14 00:49:07;;;;;;;14.52;5.15;;;;;;;12.59;100.00;100650.75;5070879;28;20482;-67
2024/03/14 00:51:33;;;;;;;15.07;4.03;;;;;;;12.56;100.00;100648.00;5068212;28;20050;-68
2024/03/14 00:54:02;;;;;;;15.82;4.97;;;;;;;12.73;100.00;100649.34;5069495;28;20460;-67
2024/03/14 00:56:31;;;;;;;14.05;6.05;;;;;;;12.76;100.00;100646.69;5069449;28;20039;-67
2024/03/14 00:58:57;;;;;;;16.20;5.30;;;;;;;12.66;100.00;100644.63;5070460;28;20521;-67
2024/03/14 01:01:25;;;;;;;18.95;6.28;;;;;;;12.90;100.00;100641.44;5069418;28;20170;-65
2024/03/14 01:03:54;;;;;;;16.92;5.43;;;;;;;12.94;100.00;100644.16;5069141;28;20028;-66
2024/03/14 01:06:21;;;;;;;12.73;5.03;;;;;;;12.99;100.00;100641.91;5067568;28;20040;-66
2024/03/14 01:08:48;;;;;;;14.32;4.65;;;;;;;13.01;100.00;100633.41;5068634;28;20409;-67
2024/03/14 01:11:18;;;;;;;11.68;4.82;;;;;;;12.96;100.00;100642.66;5067899;28;20033;-67
2024/03/14 01:13:43;;;;;;;12.18;4.38;;;;;;;12.97;100.00;100635.34;5069468;28;20028;-68
2024/03/14 01:16:09;;;;;;;19.85;6.20;;;;;;;12.91;100.00;100628.72;5069030;28;20025;-67
2024/03/14 01:18:34;;;;;;;16.60;5.38;;;;;;;13.02;100.00;100630.38;5066834;28;20029;-67
2024/03/14 01:21:00;;;;;;;13.60;5.55;;;;;;;13.05;100.00;100635.03;5069673;28;20115;-69
2024/03/14 01:23:26;;;;;;;13.85;4.82;;;;;;;13.14;100.00;100622.00;5068968;28;20048;-68
2024/03/14 01:25:51;;;;;;;16.25;5.35;;;;;;;13.10;100.00;100625.84;5067036;28;20028;-66
2024/03/14 01:28:16;;;;;;;17.25;5.32;;;;;;;12.97;100.00;100621.81;5068299;28;20497;-66
2024/03/14 01:30:42;;;;;;;15.18;5.93;;;;;;;12.94;100.00;100617.94;5070037;28;20070;-71
2024/03/14 01:33:09;;;;;;;11.75;5.00;;;;;;;12.99;100.00;100619.53;5071088;28;20068;-65
2024/03/14 01:35:34;;;;;;;17.75;5.97;;;;;;;13.01;100.00;100617.97;5071236;28;20567;-67
2024/03/14 01:38:00;;;;;;;21.20;6.00;;;;;;;12.92;100.00;100614.03;5068299;28;20060;-66
2024/03/14 01:40:26;;;;;;;15.43;5.75;;;;;;;12.77;100.00;100617.75;5070117;28;20115;-65
2024/03/14 01:42:55;;;;;;;16.88;5.00;;;;;;;12.80;100.00;100606.19;5070155;28;20036;-65
2024/03/14 01:45:21;;;;;;;18.45;6.32;;;;;;;12.86;100.00;100604.69;5068354;28;20129;-67
2024/03/14 01:47:48;;;;;;;16.65;5.40;;;;;;;12.95;100.00;100607.91;5069135;28;20517;-67
2024/03/14 01:50:15;;;;;;;16.20;5.78;;;;;;;12.93;100.00;100599.38;5069377;28;20028;-66
2024/03/14 01:52:40;;;;;;;15.07;5.53;;;;;;;12.91;100.00;100601.69;5055062;28;20032;-66
2024/03/14 01:55:09;;;;;;;15.98;5.90;;;;;;;12.83;100.00;100600.84;5068610;28;20486;-66
2024/03/14 01:57:35;;;;;;;17.52;5.50;;;;;;;12.73;100.00;100600.72;5053334;28;20604;-67
2024/03/14 02:00:05;;;;;;;13.30;5.40;;;;;;;12.96;100.00;100599.41;5067380;28;20071;-66
2024/03/14 02:02:37;;;;;;;15.30;5.57;;;;;;;13.01;100.00;100601.75;5068223;28;20708;-66
2024/03/14 02:05:12;;;;;;;13.80;5.35;;;;;;;13.16;100.00;100591.91;5070095;28;20032;-66
2024/03/14 02:07:38;;;;;;;13.52;6.13;;;;;;;13.23;100.00;100591.94;5066209;28;20688;-66
2024/03/14 02:10:12;;;;;;;14.55;5.43;;;;;;;13.01;100.00;100593.66;5069873;28;20039;-67
2024/03/14 02:12:38;;;;;;;13.07;6.03;;;;;;;12.98;100.00;100593.63;5069407;28;20032;-67
2024/03/14 02:15:04;;;;;;;19.40;5.82;;;;;;;13.09;100.00;100583.72;5068157;28;20031;-68
2024/03/14 02:17:30;;;;;;;18.50;6.15;;;;;;;13.06;100.00;100587.16;5069010;28;20028;-66
2024/03/14 02:19:56;;;;;;;13.90;5.43;;;;;;;13.05;100.00;100586.38;5066038;28;20539;-70
2024/03/14 02:22:22;;;;;;;13.63;5.13;;;;;;;12.95;100.00;100588.97;5051157;28;20054;-68
2024/03/14 02:24:51;;;;;;;12.77;4.50;;;;;;;12.96;100.00;100587.81;5067512;28;20028;-69
2024/03/14 02:27:17;;;;;;;15.25;5.47;;;;;;;12.96;100.00;100593.22;5050518;28;20032;-68
2024/03/14 02:29:43;;;;;;;21.85;5.75;;;;;;;12.96;100.00;100577.78;5068322;28;20371;-68
2024/03/14 02:32:09;;;;;;;15.20;5.57;;;;;;;13.01;100.00;100579.34;5071980;28;20103;-68
2024/03/14 02:34:35;;;;;;;14.40;5.95;;;;;;;12.93;100.00;100575.81;5072248;28;20028;-67
2024/03/14 02:37:01;;;;;;;19.25;5.50;;;;;;;13.05;100.00;100585.59;5070486;28;20032;-70
2024/03/14 02:39:29;;;;;;;13.57;5.63;;;;;;;13.17;100.00;100579.91;5072253;28;20043;-67
2024/03/14 02:41:56;;;;;;;14.60;5.97;;;;;;;13.17;99.93;100578.00;5073253;28;20039;-67
2024/03/14 02:44:22;;;;;;;18.63;5.85;;;;;;;13.06;100.00;100576.34;5054922;28;20043;-67
2024/03/14 02:46:50;;;;;;;17.95;6.25;;;;;;;13.15;99.42;100571.41;5072335;28;20032;-69
2024/03/14 02:49:18;;;;;;;15.18;6.07;;;;;;;13.08;100.00;100574.06;5070215;28;20028;-66
2024/03/14 02:51:45;;;;;;;17.45;5.15;;;;;;;13.01;100.00;100566.63;5070744;28;20046;-65
2024/03/14 02:54:17;;;;;;;19.05;6.20;;;;;;;13.05;100.00;100575.56;5072907;28;20060;-65
2024/03/14 02:56:49;;;;;;;13.60;5.30;;;;;;;13.00;100.00;100569.69;5056857;28;20404;-65
2024/03/14 02:59:21;;;;;;;14.88;4.90;;;;;;;13.00;100.00;100567.00;5072392;28;20025;-65
2024/03/14 03:01:47;;;;;;;22.30;5.60;;;;;;;12.81;100.00;100554.47;5070549;28;20056;-65
2024/03/14 03:04:12;;;;;;;15.13;5.93;;;;;;;12.87;100.00;100557.63;5071402;28;20056;-65
2024/03/14 03:07:05;;;;;;;15.93;6.30;;;;;;;13.04;100.00;100562.44;5069263;28;20092;-67
2024/03/14 03:09:27;;;;;;;12.38;4.82;;;;;;;13.02;100.00;100562.00;5082977;28;20044;-66
2024/03/14 03:11:53;;;;;;;23.02;5.88;;;;;;;12.93;100.00;100558.84;5069782;28;20041;-66
2024/03/14 03:14:18;;;;;;;13.18;5.40;;;;;;;13.02;100.00;100554.66;5071665;28;20032;-66
2024/03/14 03:16:44;;;;;;;14.15;5.05;;;;;;;13.01;100.00;100563.13;5072781;28;20494;-68
2024/03/14 03:19:10;;;;;;;16.90;6.07;;;;;;;12.98;100.00;100558.47;5071352;28;20421;-65
2024/03/14 03:21:37;;;;;;;13.80;6.10;;;;;;;12.87;100.00;100558.41;5072462;28;20044;-65
2024/03/14 03:24:11;;;;;;;15.95;6.13;;;;;;;12.95;100.00;100553.84;5071081;28;20025;-65
2024/03/14 03:26:37;;;;;;;12.48;5.80;;;;;;;12.94;100.00;100546.84;5087252;28;20116;-67
2024/03/14 03:29:03;;;;;;;14.77;5.15;;;;;;;12.91;100.00;100547.63;5070120;28;20475;-67
2024/03/14 03:31:29;;;;;;;12.90;4.57;;;;;;;13.06;100.00;100550.09;5071171;28;20047;-65
2024/03/14 03:33:55;;;;;;;14.50;5.30;;;;;;;13.03;100.00;100545.44;5071132;28;20093;-66
2024/03/14 03:36:23;;;;;;;13.15;5.32;;;;;;;13.00;100.00;100548.06;5071727;28;20037;-69
2024/03/14 03:38:49;;;;;;;13.00;5.72;;;;;;;12.96;100.00;100555.38;5069861;28;20020;-67
2024/03/14 03:41:16;;;;;;;16.08;6.20;;;;;;;13.03;99.99;100550.03;5055052;28;20032;-67
2024/03/14 03:43:43;;;;;;;16.35;5.47;;;;;;;13.21;99.35;100551.75;5070388;28;20047;-67
2024/03/14 03:46:09;;;;;;;17.48;6.00;;;;;;;13.16;99.32;100551.34;5071287;28;20033;-65
2024/03/14 03:48:39;;;;;;;12.23;4.47;;;;;;;13.14;99.60;100546.28;5053182;28;20124;-70
2024/03/14 03:51:05;;;;;;;15.98;5.13;;;;;;;13.04;100.00;100543.50;5070382;28;20040;-65
2024/03/14 03:53:34;;;;;;;14.63;5.38;;;;;;;13.05;99.63;100542.34;5070913;28;20185;-65
2024/03/14 03:56:03;;;;;;;13.57;3.97;;;;;;;13.16;99.71;100545.94;5069243;28;20441;-65
2024/03/14 03:58:33;;;;;;;13.27;5.57;;;;;;;13.21;99.26;100540.94;5071515;28;20028;-65
2024/03/14 04:01:11;;;;;;;15.95;5.43;;;;;;;13.18;98.61;100538.22;5069412;28;20063;-66
2024/03/14 04:03:40;;;;;;;15.63;5.60;;;;;;;13.16;99.22;100543.97;5071028;28;20032;-66
2024/03/14 04:06:09;;;;;;;12.38;4.85;;;;;;;13.17;99.16;100540.13;5054660;28;20489;-68
2024/03/14 04:08:36;;;;;;;14.25;6.03;;;;;;;13.14;98.64;100537.41;5069909;28;20078;-66
2024/03/14 04:11:02;;;;;;;13.85;5.57;;;;;;;13.07;99.14;100534.63;5070215;28;20072;-66
2024/03/14 04:13:28;;;;;;;13.85;5.50;;;;;;;13.10;99.32;100531.97;5054301;28;20424;-67
2024/03/14 04:15:53;;;;;;;13.68;5.72;;;;;;;13.05;98.40;100521.50;5068922;28;20115;-66
2024/03/14 04:18:19;;;;;;;12.90;5.25;;;;;;;13.21;98.09;100530.13;5069846;28;20102;-65
2024/03/14 04:20:45;;;;;;;15.35;5.70;;;;;;;13.20;97.47;100525.84;5071254;28;20036;-66
2024/03/14 04:23:11;;;;;;;13.80;5.47;;;;;;;13.06;98.51;100536.59;5052270;28;20024;-66
2024/03/14 04:25:36;;;;;;;16.42;5.93;;;;;;;13.09;98.93;100524.22;5067769;28;20042;-69
2024/03/14 04:28:02;;;;;;;13.30;5.47;;;;;;;12.93;98.88;100531.81;5055742;28;20067;-65
2024/03/14 04:30:28;;;;;;;14.13;5.63;;;;;;;13.13;98.06;100527.75;5068702;28;20032;-66
2024/03/14 04:32:54;;;;;;;11.10;4.30;;;;;;;13.19;98.01;100528.94;5071319;28;20028;-66
2024/03/14 04:35:23;;;;;;;11.95;4.75;;;;;;;13.15;98.10;100523.50;5052843;28;20032;-66
2024/03/14 04:37:49;;;;;;;12.85;5.25;;;;;;;13.23;97.58;100524.34;5067813;28;20580;-66
2024/03/14 04:40:21;;;;;;;14.75;5.40;;;;;;;13.21;97.55;100535.53;5069537;28;20032;-66
2024/03/14 04:42:47;;;;;;;14.65;4.70;;;;;;;13.14;97.56;100535.47;5069729;28;20086;-66
2024/03/14 04:45:22;;;;;;;12.93;5.75;;;;;;;13.16;98.27;100530.47;5067193;28;20024;-64
2024/03/14 04:47:51;;;;;;;12.43;5.53;;;;;;;13.25;97.09;100530.94;5056070;28;20100;-69
2024/03/14 04:50:21;;;;;;;16.27;5.50;;;;;;;13.12;97.95;100523.50;5052046;28;20613;-65
2024/03/14 04:52:47;;;;;;;15.70;5.80;;;;;;;13.10;97.84;100518.47;5069921;28;20043;-68
2024/03/14 04:55:13;;;;;;;14.60;5.18;;;;;;;13.16;97.88;100518.88;5068961;28;20111;-66
2024/03/14 04:57:40;;;;;;;15.02;5.40;;;;;;;13.23;97.33;100516.22;5069206;28;20144;-67
2024/03/14 05:02:51;;;;;;;10.02;4.63;;;;;;;13.23;96.79;100519.72;5065504;28;20039;-67
2024/03/14 05:05:17;;;;;;;12.95;4.55;;;;;;;13.24;97.09;100523.22;5068446;28;20049;-66
2024/03/14 05:07:43;;;;;;;14.23;5.57;;;;;;;13.17;97.15;100521.22;5051631;28;20671;-66
2024/03/14 05:10:09;;;;;;;11.85;5.50;;;;;;;13.14;97.31;100513.09;5068943;28;20554;-69
2024/03/14 05:12:35;;;;;;;14.93;5.50;;;;;;;13.19;96.60;100518.91;5069237;28;20025;-67
2024/03/14 05:15:04;;;;;;;11.52;4.90;;;;;;;13.24;96.38;100518.56;5069439;28;20492;-67
2024/03/14 05:17:33;;;;;;;14.05;4.57;;;;;;;13.12;96.66;100520.78;5051653;28;20063;-67
2024/03/14 05:19:59;;;;;;;17.15;5.22;;;;;;;13.17;96.89;100518.50;5067686;28;20052;-69
2024/03/14 05:22:26;;;;;;;14.20;6.15;;;;;;;13.22;96.69;100520.09;5066857;28;20064;-67
2024/03/14 05:24:51;;;;;;;14.10;5.72;;;;;;;13.09;97.03;100518.81;5066695;28;20819;-66
2024/03/14 05:27:17;;;;;;;14.52;5.85;;;;;;;12.97;98.14;100514.44;5053220;28;20119;-67
2024/03/14 05:29:43;;;;;;;10.70;4.85;;;;;;;12.97;98.25;100514.44;5070153;28;20405;-69
2024/03/14 05:32:23;;;;;;;9.63;4.75;;;;;;;13.03;97.77;100522.97;5069888;28;20036;-66
2024/03/14 05:34:49;;;;;;;12.25;4.78;;;;;;;12.99;98.09;100519.50;5069275;28;20032;-65
2024/03/14 05:37:15;;;;;;;11.43;4.72;;;;;;;13.05;97.33;100526.91;5055999;28;20063;-65
2024/03/14 05:39:41;;;;;;;12.07;4.82;;;;;;;13.04;97.41;100528.06;5067559;28;20060;-66
2024/03/14 05:42:12;;;;;;;13.25;6.05;;;;;;;13.16;96.69;100524.28;5069386;28;20036;-66
2024/03/14 05:44:41;;;;;;;19.40;5.75;;;;;;;13.23;96.44;100521.63;5052519;28;20082;-70
2024/03/14 05:47:10;;;;;;;17.85;6.22;;;;;;;13.19;96.79;100526.25;5065669;28;20036;-68
2024/03/14 05:49:36;;;;;;;17.33;5.72;;;;;;;13.24;96.44;100523.22;5066308;28;20135;-72
2024/03/14 05:52:03;;;;;;;13.02;4.97;;;;;;;13.16;96.64;100525.06;5067881;28;20033;-71
2024/03/14 05:54:29;;;;;;;17.20;6.10;;;;;;;13.12;97.33;100523.50;5073037;28;20460;-67
2024/03/14 05:56:55;;;;;;;14.10;5.43;;;;;;;12.99;98.19;100516.81;5064968;28;20047;-65
2024/03/14 05:59:21;;;;;;;10.88;5.05;;;;;;;13.10;97.79;100512.28;5071430;28;20032;-66
2024/03/14 06:01:47;;;;;;;15.93;5.28;;;;;;;13.22;97.39;100526.25;5054656;28;20112;-68
2024/03/14 06:04:13;;;;;;;17.25;6.53;;;;;;;13.14;96.87;100523.91;5072470;28;20064;-67
2024/03/14 06:06:39;;;;;;;15.23;5.15;;;;;;;13.13;97.63;100517.69;5070749;28;20027;-66
2024/03/14 06:09:04;;;;;;;12.43;5.47;;;;;;;13.24;97.44;100517.78;5085304;28;20441;-67
2024/03/14 06:11:33;;;;;;;14.75;6.03;;;;;;;13.14;97.76;100524.66;5067904;28;20036;-66
2024/03/14 06:13:59;;;;;;;21.25;5.85;;;;;;;13.19;97.62;100521.63;5067084;28;20031;-70
2024/03/14 06:16:26;;;;;;;16.25;6.13;;;;;;;13.31;96.96;100524.03;5065308;28;21159;-67
2024/03/14 06:18:51;;;;;;;19.40;6.88;;;;;;;13.16;97.47;100516.19;5070131;28;20128;-66
2024/03/14 06:21:17;;;;;;;14.55;5.25;;;;;;;13.02;97.82;100526.84;5069403;28;20123;-71
2024/03/14 06:23:42;;;;;;;15.30;6.45;;;;;;;12.90;98.90;100519.03;5050364;28;20068;-67
2024/03/14 06:26:08;;;;;;;16.33;6.32;;;;;;;12.95;99.02;100519.44;5070983;28;20032;-69
2024/03/14 06:28:35;;;;;;;13.50;5.30;;;;;;;12.92;99.22;100522.13;5068490;28;20036;-68
2024/03/14 06:31:03;;;;;;;14.35;5.18;;;;;;;12.88;99.71;100524.03;5054675;28;20089;-70
2024/03/14 06:33:28;;;;;;;16.00;6.15;;;;;;;13.00;99.51;100523.75;5074274;28;20032;-66
2024/03/14 06:35:55;;;;;;;15.23;5.03;;;;;;;13.16;98.07;100537.81;5076545;28;20028;-66
2024/03/14 06:38:21;;;;;;;15.65;5.30;;;;;;;13.09;98.12;100527.72;5073829;28;20107;-66
2024/03/14 06:40:48;;;;;;;16.17;6.25;;;;;;;13.26;98.01;100527.06;5069351;28;20036;-67
2024/03/14 06:43:14;;;;;;;17.15;6.28;;;;;;;13.24;97.47;100529.38;5072365;28;20051;-68
2024/03/14 06:45:40;;;;;;;13.68;6.28;;;;;;;13.27;97.72;100530.56;5052692;28;20409;-68
2024/03/14 06:48:06;;;;;;;13.55;4.90;;;;;;;13.27;97.42;100531.34;5062916;28;20046;-66
2024/03/14 06:50:31;;;;;;;14.93;6.07;;;;;;;13.35;97.27;100530.25;5069503;28;20047;-67
2024/03/14 06:52:58;;;;;;;14.45;5.63;;;;;;;13.31;97.67;100532.16;5069549;28;20127;-66
2024/03/14 06:55:24;;;;;;;16.50;6.03;;;;;;;13.21;97.98;100532.06;5067359;28;20032;-70
2024/03/14 06:57:52;;;;;;;16.73;5.18;;;;;;;13.15;98.40;100531.63;5066550;28;20042;-67
2024/03/14 07:00:22;;;;;;;13.15;5.75;;;;;;;13.26;97.94;100531.69;5064929;28;20032;-66
2024/03/14 07:02:52;;;;;;;12.13;5.65;;;;;;;13.30;97.84;100535.97;5067632;28;20063;-69
2024/03/14 07:05:19;;;;;;;15.13;5.88;;;;;;;13.48;97.47;100531.47;5069031;28;20036;-69
2024/03/14 07:07:45;;;;;;;14.93;5.28;;;;;;;13.29;97.79;100531.75;5063434;28;20024;-66
2024/03/14 07:10:14;;;;;;;13.43;5.03;;;;;;;13.41;97.66;100538.78;5064744;28;20050;-67
2024/03/14 07:12:45;;;;;;;13.63;5.10;;;;;;;13.53;97.08;100531.13;5069849;28;20029;-66
2024/03/14 07:15:12;;;;;;;;;;;;;;;13.60;96.21;100533.09;5069343;28;20025;-67
2024/03/14 07:17:37;;;;;;;12.40;4.93;;;;;;;13.51;96.34;100528.00;5071920;28;19923;-68
2024/03/14 07:20:16;;;;;;;16.25;5.68;;;;;;;13.49;96.41;100535.72;5071711;28;20147;-69
2024/03/14 07:22:43;;;;;;;14.30;5.85;;;;;;;13.41;97.34;100541.47;5051455;28;20052;-68
2024/03/14 07:25:09;;;;;;;16.17;5.97;;;;;;;13.44;96.58;100543.41;5071629;28;20405;-66
2024/03/14 07:27:35;;;;;;;12.35;5.40;;;;;;;13.54;96.05;100538.09;5056872;28;20111;-65
2024/03/14 07:30:07;;;;;;;13.50;4.90;;;;;;;13.36;96.62;100548.00;5069470;28;20467;-66
2024/03/14 07:32:35;;;;;;;12.52;5.00;;;;;;;13.50;97.12;100552.75;5086502;28;20428;-66
2024/03/14 07:35:02;;;;;;;16.92;5.43;;;;;;;13.43;96.92;100550.75;5066675;28;20070;-66
2024/03/14 07:37:28;;;;;;;14.48;5.10;;;;;;;13.39;97.65;100551.91;5072045;28;20188;-68
2024/03/14 07:39:54;;;;;;;13.07;5.60;;;;;;;13.55;97.67;100546.97;5070209;28;20059;-67
2024/03/14 07:42:20;;;;;;;10.93;5.00;;;;;;;13.56;97.18;100554.72;5071218;28;20063;-66
2024/03/14 07:44:45;;;;;;;11.48;4.53;;;;;;;13.70;96.54;100547.84;5070403;28;20438;-67
2024/03/14 07:47:23;;;;;;;14.45;5.75;;;;;;;13.62;96.83;100555.16;5072121;28;20482;-68
2024/03/14 07:49:50;;;;;;;14.30;5.30;;;;;;;13.41;97.56;100553.06;5079055;28;20482;-66
2024/03/14 07:52:16;;;;;;;12.90;4.75;;;;;;;13.51;97.74;100557.03;5068961;28;20039;-66
2024/03/14 07:54:44;;;;;;;13.68;5.55;;;;;;;13.54;97.49;100562.44;5070423;28;20040;-66
2024/03/14 07:57:15;;;;;;;10.55;5.45;;;;;;;13.66;96.78;100553.25;5070754;28;20170;-66
2024/03/14 07:59:44;;;;;;;15.63;4.97;;;;;;;13.72;97.20;100554.44;5086595;28;20039;-66
2024/03/14 08:02:11;;;;;;;15.15;5.20;;;;;;;13.75;96.62;100566.41;5070051;28;20182;-67
2024/03/14 08:04:41;;;;;;;7.68;4.13;;;;;;;13.56;97.06;100562.06;5071667;28;20052;-68
2024/03/14 08:07:10;;;;;;;9.70;4.07;;;;;;;13.59;96.96;100561.28;5071275;28;20036;-68
2024/03/14 08:09:42;;;;;;;12.70;5.38;;;;;;;13.70;96.62;100562.16;5066956;28;20048;-68
2024/03/14 08:12:09;;;;;;;12.38;4.95;;;;;;;13.64;96.48;100563.66;5066461;28;20551;-68
2024/03/14 08:14:34;;;;;;;14.07;5.35;;;;;;;13.71;96.49;100561.00;5089861;28;20029;-67
2024/03/14 08:17:01;;;;;;;15.75;4.97;;;;;;;13.69;96.37;100568.72;5065229;28;20021;-66
2024/03/14 08:19:28;;;;;;;11.38;5.30;;;;;;;13.73;96.70;100574.16;5069976;28;20040;-66
2024/03/14 08:21:56;;;;;;;16.00;5.60;;;;;;;13.99;95.52;100563.09;5069469;28;20024;-69
2024/03/14 08:24:26;;;;;;;10.75;4.72;;;;;;;14.03;95.36;100570.06;5068603;28;20050;-67
2024/03/14 08:26:52;;;;;;;11.93;5.65;;;;;;;14.02;95.02;100563.09;5071225;28;20028;-70
2024/03/14 08:29:18;;;;;;;9.68;4.90;;;;;;;14.16;93.81;100565.88;5068691;28;20013;-68
2024/03/14 08:31:45;;;;;;;8.40;4.47;;;;;;;14.21;93.22;100557.38;5071619;28;20063;-67
2024/03/14 08:34:11;;;;;;;11.35;4.78;;;;;;;14.38;91.87;100562.09;5070470;28;20498;-67
2024/03/14 08:36:40;;;;;;;13.13;5.55;;;;;;;14.28;92.01;100559.38;5053479;28;20505;-66
2024/03/14 08:39:06;;;;;;;12.00;5.13;;;;;;;14.24;92.52;100567.47;5070574;28;20032;-67
2024/03/14 08:41:32;;;;;;;12.48;5.38;;;;;;;14.40;92.41;100564.47;5048645;28;20036;-66
2024/03/14 08:43:58;;;;;;;10.88;4.93;;;;;;;14.29;92.51;100556.28;5075812;28;20040;-66
2024/03/14 08:46:23;;;;;;;13.82;6.00;;;;;;;14.34;91.96;100549.72;5070147;28;20401;-65
2024/03/14 08:48:49;;;;;;;11.93;5.70;;;;;;;14.57;91.56;100555.59;5071996;28;20028;-66
2024/03/14 08:51:15;;;;;;;11.30;5.60;;;;;;;14.65;91.15;100559.09;5074259;28;20047;-66
2024/03/14 08:56:25;;;;;;;13.55;5.75;;;;;;;14.69;90.89;100557.94;5072453;28;20040;-67
2024/03/14 08:58:56;;;;;;;12.15;4.97;;;;;;;14.73;90.61;100560.66;5085239;28;20028;-66
2024/03/14 09:01:24;;;;;;;9.40;5.07;;;;;;;14.91;90.14;100550.59;5052038;28;20420;-66
2024/03/14 09:03:50;;;;;;;13.30;5.63;;;;;;;14.89;89.52;100555.63;5056346;28;20103;-66
2024/03/14 09:06:15;;;;;;;9.02;4.40;;;;;;;15.02;89.76;100543.28;5068453;28;20036;-66
2024/03/14 09:08:41;;;;;;;12.15;5.47;;;;;;;15.40;88.72;100547.91;5070084;28;20028;-67
2024/03/14 09:11:07;;;;;;;12.25;4.97;;;;;;;15.53;87.70;100561.84;5066018;28;20144;-67
2024/03/14 09:13:35;;;;;;;11.77;5.25;;;;;;;15.72;86.50;100547.84;5052003;28;20065;-66
2024/03/14 09:16:00;;;;;;;11.13;5.50;;;;;;;15.94;85.89;100544.72;5070161;28;20154;-73
2024/03/14 09:18:26;;;;;;;14.45;4.72;;;;;;;16.20;85.58;100541.50;5068952;28;20108;-67
2024/03/14 09:20:55;;;;;;;12.05;4.75;;;;;;;16.27;84.44;100546.91;5069696;28;20035;-68
2024/03/14 09:23:24;;;;;;;13.38;4.93;;;;;;;16.25;84.49;100549.25;5066869;28;20494;-70
2024/03/14 09:25:50;;;;;;;10.32;4.97;;;;;;;16.47;83.06;100551.84;5069572;28;20020;-66
2024/03/14 09:28:16;;;;;;;14.35;4.57;;;;;;;16.62;81.56;100547.91;5070626;28;20512;-67
2024/03/14 09:30:42;;;;;;;10.77;4.70;;;;;;;16.69;80.46;100547.84;5070327;28;20548;-66
2024/03/14 09:33:08;;;;;;;10.43;4.07;;;;;;;16.72;79.93;100549.78;5071374;28;20031;-65
2024/03/14 09:35:37;;;;;;;13.25;4.70;;;;;;;16.68;79.08;100557.19;5072503;28;20059;-65
2024/03/14 09:38:04;;;;;;;6.93;3.72;;;;;;;16.58;78.98;100552.59;5067744;28;20567;-68
2024/03/14 09:40:30;;;;;;;8.48;3.70;;;;;;;16.59;79.08;100560.34;5068971;28;20025;-66
2024/03/14 09:42:58;;;;;;;7.07;3.60;;;;;;;16.18;80.14;100556.66;5067919;28;21084;-65
2024/03/14 09:45:24;;;;;;;8.15;4.05;;;;;;;16.31;80.29;100557.75;5082521;28;20043;-65
2024/03/14 09:47:50;;;;;;;8.00;3.10;;;;;;;16.16;80.46;100550.84;5071519;28;20032;-65
2024/03/14 09:50:20;;;;;;;7.70;3.45;;;;;;;16.36;80.53;100549.19;5070386;28;20039;-66
2024/03/14 09:52:48;;;;;;;14.85;3.72;;;;;;;16.37;80.79;100539.88;5054864;28;20055;-68
2024/03/14 09:55:15;;;;;;;6.38;3.05;;;;;;;16.69;79.01;100553.28;5067372;28;20051;-66
2024/03/14 09:57:42;;;;;;;9.15;3.90;;;;;;;16.60;78.96;100552.97;5068361;28;20100;-68
2024/03/14 10:00:19;;;;;;;9.50;3.17;;;;;;;16.60;78.52;100545.59;5049327;28;20554;-66
2024/03/14 10:02:50;;;;;;;8.43;2.97;;;;;;;16.64;78.54;100542.84;5071059;28;20123;-66
2024/03/14 10:05:16;;;;;;;6.05;2.80;;;;;;;16.95;77.79;100539.91;5067482;28;20044;-66
2024/03/14 10:07:42;;;;;;;6.35;2.53;;;;;;;16.95;77.21;100542.63;5067602;28;20040;-67
2024/03/14 10:10:08;;;;;;;5.82;2.33;;;;;;;17.18;75.35;100533.91;5065175;28;20666;-67
2024/03/14 10:12:36;;;;;;;5.60;2.90;;;;;;;17.35;75.17;100543.06;5066147;28;20025;-71
2024/03/14 10:15:12;;;;;;;4.30;2.15;;;;;;;17.46;74.69;100543.75;5067778;28;20056;-68
2024/03/14 10:17:42;;;;;;;4.78;2.33;;;;;;;17.19;75.11;100540.88;5064416;28;20036;-71
2024/03/14 10:20:12;;;;;;;4.78;2.17;;;;;;;17.33;73.85;100540.75;5063334;28;20048;-67
2024/03/14 10:22:41;;;;;;;5.55;2.80;;;;;;;17.41;73.54;100538.75;5067581;28;20028;-67
2024/03/14 10:25:12;;;;;;;5.40;2.35;;;;;;;17.34;73.18;100536.88;5086558;28;20489;-68
2024/03/14 10:27:41;;;;;;;3.92;2.17;;;;;;;17.49;73.66;100543.75;5065881;28;20029;-68
2024/03/14 10:30:08;;;;;;;4.15;2.28;;;;;;;17.62;72.72;100536.63;5066752;28;20095;-67
2024/03/14 10:32:34;;;;;;;4.45;2.20;;;;;;;17.76;70.88;100533.75;5068052;28;20043;-70
2024/03/14 10:35:01;;;;;;;3.33;1.92;;;;;;;17.91;71.08;100539.78;5068558;28;20088;-66
2024/03/14 10:37:33;;;;;;;3.47;2.13;;;;;;;17.96;70.38;100536.63;5066751;28;20217;-66
2024/03/14 10:40:04;;;;;;;3.97;2.33;;;;;;;17.83;71.56;100539.09;5065370;28;20024;-67
2024/03/14 10:42:29;;;;;;;4.43;1.95;;;;;;;17.84;70.49;100532.50;5049946;28;20056;-66
2024/03/14 10:44:56;;;;;;;3.58;1.90;;;;;;;17.93;68.59;100532.78;5069517;28;20079;-67
2024/03/14 10:47:21;;;;;;;4.10;2.10;;;;;;;17.90;69.19;100522.66;5069344;28;20040;-66
2024/03/14 10:49:47;;;;;;;6.00;2.00;;;;;;;17.95;68.45;100527.69;5066795;28;20028;-67
2024/03/14 10:52:17;;;;;;;3.05;1.60;;;;;;;18.19;66.56;100533.25;5054319;28;20056;-68
2024/03/14 10:54:49;;;;;;;3.28;1.80;;;;;;;18.19;67.00;100516.88;5067104;28;20498;-66
2024/03/14 10:57:18;;;;;;;4.25;1.25;;;;;;;18.08;68.32;100524.44;5089793;28;20025;-65
2024/03/14 10:59:45;;;;;;;2.85;1.35;;;;;;;18.33;68.76;100514.72;5072457;28;20021;-64
2024/03/14 11:02:14;;;;;;;3.53;1.92;;;;;;;18.53;66.61;100518.38;5073903;28;20044;-66
2024/03/14 11:04:40;;;;;;;8.55;1.48;;;;;;;18.53;67.24;100517.59;5068290;28;20032;-66
2024/03/14 11:07:08;;;;;;;6.30;1.80;;;;;;;18.69;65.44;100517.75;5070722;28;20028;-66
2024/03/14 11:09:46;;;;;;;3.65;2.03;;;;;;;18.71;64.94;100512.66;5083211;28;20028;-70
2024/03/14 11:12:20;;;;;;;5.97;1.40;;;;;;;18.41;65.74;100515.41;5064926;28;20067;-69
2024/03/14 11:14:51;;;;;;;2.33;1.75;;;;;;;18.50;65.99;100521.16;5048602;28;20052;-67
2024/03/14 11:17:20;;;;;;;4.35;1.40;;;;;;;18.76;65.45;100520.38;5070322;28;20095;-67
2024/03/14 11:19:49;;;;;;;5.22;1.90;;;;;;;18.31;67.01;100513.59;5070686;28;20032;-65
2024/03/14 11:22:18;;;;;;;2.33;1.50;;;;;;;18.11;67.73;100518.16;5055895;28;20038;-66